Pickton, Texas
Current Conditions -  °F | °C
As of 12:15 PM on Thursday 29 Jan 2015 (Local Time) from KSLR Reporting Station
Clear Clear  
Wind Chill: 65°   Ceiling: Unl
Heat Index: 65°   Visibility: 10mi
Dew Point: 39°   Wind: 16mph
Humidity: 38%   Direction: 340°NNW
Pressure: 30.29"   Gusts: NA
Location:  33.03°N, 95.39°W
Report Text: KSLR 291815Z AUTO 34014KT 10SM CLR 19/04 A3029 RMK AO2 T01850037
Loading
Personal Weather Stations






























Interactive Weather Map New forecast layout! Learn more

10-Day Weather Forecast

Advertisements
Track Severe Weather on mobile